GMFO

Angads Airport

Oujda, Morocco
METAR GMFO 160100Z 19007KT CAVOK 10/01 Q1026 NOSIG
Observed Flight Rules
Dec-16 @ 01:00 UTC (38 minutes ago) Visual Flight Rules
Wind Visibility Clouds
190° at 7 knots 10,000+ meters
  • Clear skies
Temperatures Readings
Current 10°C / 50°F
Dewpoint 1°C / 34°F
Humidity 54%
Altimeter 30.3" Hg
Pressure 1026 hPa
Elevation 470
METAR GMFO 160100Z 19007KT CAVOK 10/01 Q1026 NOSIG
Observed Flight Rules
Dec-16 @ 01:00 UTC
(38 minutes ago)
VFR
Wind Visibility
190° at 7 knots 10,000+ meters
Clouds
  • Clear skies
Temperature Dewpoint
10°C / 50°F 1°C / 34°F
Humidity Altimeter Pressure
54% 30.3" Hg 1026 hPa